Airfield :
LOGIN :

Register | Disclaimer

   EN    FR    IT 

 










Legend :    VFR   Marginal VFR   IFR   Intensive IFR   Very Intensive IFR
Visi :
Ceiling :
>= 8 km
>= 3000ft
5 to 8 km
1000 to 3000 ft
1500m to 5 km
500 to 1000 ft
800 to 1500m
200 to 500 ft
< 800m
< 200 ft
Symbols :   Thunderstorms  Fog  Heavy snow  Heavy precipitations  Wind > 20 kt
SIGMETs :     Misc.  Thunderstorms  Icing  Turbulence  Mountain Waves  Volcanic Ashes






- Airport Elevation : 1789 ft
- IATA code : PRN


BKPR - Pristina

CURRENT METAR :
  • 280100Z 32004KT CAVOK 19/13 Q1014 NOSIG

EXPIRED METARs :
  • 280030Z VRB03KT CAVOK 18/14 Q1015 NOSIG
  • 280000Z VRB01KT CAVOK 17/14 Q1014 NOSIG
  • 272330Z 00000KT CAVOK 17/14 Q1014 NOSIG
  • 272300Z VRB03KT CAVOK 18/14 Q1015 NOSIG
  • 272230Z 00000KT 9999 FEW040CB 17/14 Q1016 NOSIG

TAF TAF BKPR
Valid from the 28 at 00:00 until the 29 at 00:00 UTC


272330Z 2800/2824 02006KT 9999 FEW040 SCT080
TEMPO 2803/2806 4000 BR
TEMPO 2811/2818 4000 TSRA SCT025CB



MET'MAP, your aeronautical weather chart ! - Copyright ORBIFLY December 2007 - Disclaimer

ORBIFLY MET'MAP TEAM :

Programming & Development : Alexandra Zaïnal
Original concept : Baudouin d'Aumeries
Technical & hardware support : Manuel Goepfert
Assistance : Marc-Olivier Méhu

Contact : metmap@orbifly.com




SOURCES & CREDITS :

   NOAA